Main page
METAR-TAF:

METAR-TAF

Airports :

Niamtougou, Togo

Niamtougou International Airport

latitude: 09-46N, longitude: 001-06E, elevation: 342 m

Current weather observation

The report was made 44 minutes ago, at 21:00 UTC
Wind 4 kt from the South
Temperature 29°C
Humidity 70%
Pressure 1014 hPa
Visibility 10 km or more
no clouds below 1500 m and no cumulonimbus

METAR: DXNG 242100Z 18004KT CAVOK 29/23 Q1014

Time: 21:44 (21:44 UTC)

Forecast

The report was made 4 hours and 44 minutes ago, at 17:00 UTC
Forecast valid from 24 at 18 UTC to 25 at 18 UTC
Wind 5 kt from variable directions
Visibility 10 km or more
Few clouds at a height of 1200 ft
Temporary
from 25 at 15 UTC to 25 at 18 UTC
Broken clouds at a height of 1000 ft
Few clouds at a height of 1600 ft, Cumulonimbus.
thunderstorm

TAF: DXNG 241700Z 2418/2518 VRB05KT 9999 FEW012 TEMPO 2515/2518 TS BKN010 FEW016CB

Weather observations and forecasts of more than 4000 airports (METAR and TAF reports).

The available stations are represented by yellow and red dots on the map.

Hover mouse over dot to see the name of the station.

Then click to see weather observations and forecasts.

To change the map : click on the green buttons with a black cross to zoom in, on the green button with a dash to zoom out, or on the green arrows for adjacent maps.


METAR-TAF: